sensor_id;sensor_type;location;lat;lon;timestamp;pressure;altitude;pressure_sealevel;temperature;humidity
53041;BME280;39326;42.650;23.248;2023-04-09T00:00:41;92715.56;;;5.03;87.81
53041;BME280;39326;42.650;23.248;2023-04-09T00:03:07;92711.53;;;5.09;87.56
53041;BME280;39326;42.650;23.248;2023-04-09T00:05:37;92715.06;;;4.97;88.25
53041;BME280;39326;42.650;23.248;2023-04-09T00:08:04;92717.59;;;5.09;87.17
53041;BME280;39326;42.650;23.248;2023-04-09T00:10:30;92718.47;;;4.98;87.73
53041;BME280;39326;42.650;23.248;2023-04-09T00:12:56;92721.59;;;5.03;87.04
53041;BME280;39326;42.650;23.248;2023-04-09T00:15:22;92718.63;;;5.05;86.92
53041;BME280;39326;42.650;23.248;2023-04-09T00:17:49;92719.31;;;5.02;85.98
53041;BME280;39326;42.650;23.248;2023-04-09T00:20:15;92718.97;;;5.03;85.55
53041;BME280;39326;42.650;23.248;2023-04-09T00:22:41;92713.72;;;4.87;86.32
53041;BME280;39326;42.650;23.248;2023-04-09T00:25:07;92716.53;;;4.63;87.56
53041;BME280;39326;42.650;23.248;2023-04-09T00:27:34;92724.97;;;4.68;88.15
53041;BME280;39326;42.650;23.248;2023-04-09T00:29:59;92723.34;;;4.64;88.15
53041;BME280;39326;42.650;23.248;2023-04-09T00:32:26;92729.97;;;4.74;87.79
53041;BME280;39326;42.650;23.248;2023-04-09T00:34:52;92733.31;;;4.71;88.27
53041;BME280;39326;42.650;23.248;2023-04-09T00:37:18;92738.00;;;4.77;87.78
53041;BME280;39326;42.650;23.248;2023-04-09T00:39:44;92736.03;;;4.74;88.16
53041;BME280;39326;42.650;23.248;2023-04-09T00:42:11;92734.75;;;4.68;88.13
53041;BME280;39326;42.650;23.248;2023-04-09T00:44:37;92730.31;;;4.72;87.78
53041;BME280;39326;42.650;23.248;2023-04-09T00:47:03;92726.16;;;4.87;87.37
53041;BME280;39326;42.650;23.248;2023-04-09T00:49:29;92729.97;;;4.89;87.52
53041;BME280;39326;42.650;23.248;2023-04-09T00:51:56;92717.94;;;4.92;87.12
53041;BME280;39326;42.650;23.248;2023-04-09T00:54:22;92719.22;;;4.98;86.40
53041;BME280;39326;42.650;23.248;2023-04-09T00:56:48;92720.34;;;4.97;86.50
53041;BME280;39326;42.650;23.248;2023-04-09T00:59:15;92714.63;;;4.95;86.39
53041;BME280;39326;42.650;23.248;2023-04-09T01:01:41;92723.31;;;4.95;86.75
53041;BME280;39326;42.650;23.248;2023-04-09T01:04:08;92723.06;;;5.01;86.23
53041;BME280;39326;42.650;23.248;2023-04-09T01:06:54;92730.81;;;5.09;85.55
53041;BME280;39326;42.650;23.248;2023-04-09T01:09:40;92734.25;;;4.94;86.61
53041;BME280;39326;42.650;23.248;2023-04-09T01:12:08;92739.84;;;4.92;86.43
53041;BME280;39326;42.650;23.248;2023-04-09T01:17:15;92732.38;;;4.94;86.19
53041;BME280;39326;42.650;23.248;2023-04-09T01:19:57;92734.91;;;4.91;85.93
53041;BME280;39326;42.650;23.248;2023-04-09T01:28:42;92736.97;;;4.82;86.47
53041;BME280;39326;42.650;23.248;2023-04-09T01:31:12;92731.00;;;4.85;86.00
53041;BME280;39326;42.650;23.248;2023-04-09T01:33:38;92740.38;;;4.82;85.30
53041;BME280;39326;42.650;23.248;2023-04-09T01:36:05;92738.91;;;4.85;85.07
53041;BME280;39326;42.650;23.248;2023-04-09T01:38:34;92733.22;;;4.83;85.07
53041;BME280;39326;42.650;23.248;2023-04-09T01:41:02;92731.34;;;4.83;85.43
53041;BME280;39326;42.650;23.248;2023-04-09T01:43:29;92740.91;;;4.88;84.81
53041;BME280;39326;42.650;23.248;2023-04-09T01:45:57;92736.63;;;4.83;85.09
53041;BME280;39326;42.650;23.248;2023-04-09T01:48:25;92731.69;;;4.82;85.28
53041;BME280;39326;42.650;23.248;2023-04-09T01:50:52;92726.75;;;4.80;85.31
53041;BME280;39326;42.650;23.248;2023-04-09T01:53:19;92731.94;;;4.61;86.27
53041;BME280;39326;42.650;23.248;2023-04-09T01:55:46;92736.72;;;4.71;85.10
53041;BME280;39326;42.650;23.248;2023-04-09T01:58:12;92734.00;;;4.67;85.38
53041;BME280;39326;42.650;23.248;2023-04-09T02:00:40;92731.00;;;4.69;84.91
53041;BME280;39326;42.650;23.248;2023-04-09T02:03:22;92726.84;;;4.68;85.51
53041;BME280;39326;42.650;23.248;2023-04-09T02:05:58;92734.25;;;4.62;85.53
53041;BME280;39326;42.650;23.248;2023-04-09T02:08:29;92734.84;;;4.56;85.70
53041;BME280;39326;42.650;23.248;2023-04-09T02:10:57;92732.44;;;4.51;86.04
53041;BME280;39326;42.650;23.248;2023-04-09T02:13:23;92734.50;;;4.57;85.48
53041;BME280;39326;42.650;23.248;2023-04-09T02:15:51;92723.75;;;4.50;85.58
53041;BME280;39326;42.650;23.248;2023-04-09T02:18:26;92726.47;;;4.54;85.59
53041;BME280;39326;42.650;23.248;2023-04-09T02:20:53;92730.22;;;4.53;85.25
53041;BME280;39326;42.650;23.248;2023-04-09T02:23:19;92721.88;;;4.51;85.27
53041;BME280;39326;42.650;23.248;2023-04-09T02:25:45;92724.19;;;4.52;84.81
53041;BME280;39326;42.650;23.248;2023-04-09T02:28:11;92728.28;;;4.50;85.05
53041;BME280;39326;42.650;23.248;2023-04-09T02:30:37;92726.75;;;4.49;84.45
53041;BME280;39326;42.650;23.248;2023-04-09T02:33:03;92727.66;;;4.40;84.96
53041;BME280;39326;42.650;23.248;2023-04-09T02:35:28;92729.88;;;4.38;84.98
53041;BME280;39326;42.650;23.248;2023-04-09T02:37:54;92721.84;;;4.35;84.99
53041;BME280;39326;42.650;23.248;2023-04-09T02:40:20;92722.19;;;4.33;84.45
53041;BME280;39326;42.650;23.248;2023-04-09T02:42:46;92728.66;;;4.36;84.75
53041;BME280;39326;42.650;23.248;2023-04-09T02:45:11;92721.34;;;4.29;84.62
53041;BME280;39326;42.650;23.248;2023-04-09T02:47:37;92721.59;;;4.24;84.95
53041;BME280;39326;42.650;23.248;2023-04-09T02:50:04;92719.44;;;4.14;85.21
53041;BME280;39326;42.650;23.248;2023-04-09T02:52:30;92718.25;;;4.11;85.59
53041;BME280;39326;42.650;23.248;2023-04-09T02:54:56;92720.00;;;4.07;85.79
53041;BME280;39326;42.650;23.248;2023-04-09T02:57:22;92715.50;;;4.08;85.30
53041;BME280;39326;42.650;23.248;2023-04-09T02:59:48;92708.25;;;4.05;85.57
53041;BME280;39326;42.650;23.248;2023-04-09T03:02:14;92711.97;;;4.04;85.08
53041;BME280;39326;42.650;23.248;2023-04-09T03:04:40;92712.75;;;4.04;84.76
53041;BME280;39326;42.650;23.248;2023-04-09T03:07:06;92714.97;;;4.02;85.15
53041;BME280;39326;42.650;23.248;2023-04-09T03:09:32;92709.25;;;4.00;85.37
53041;BME280;39326;42.650;23.248;2023-04-09T03:11:58;92710.59;;;3.94;85.03
53041;BME280;39326;42.650;23.248;2023-04-09T03:14:24;92712.72;;;3.88;85.45
53041;BME280;39326;42.650;23.248;2023-04-09T03:16:50;92713.75;;;3.72;85.71
53041;BME280;39326;42.650;23.248;2023-04-09T03:19:16;92715.00;;;3.62;86.23
53041;BME280;39326;42.650;23.248;2023-04-09T03:21:42;92713.69;;;3.68;85.67
53041;BME280;39326;42.650;23.248;2023-04-09T03:24:08;92715.53;;;3.68;85.85
53041;BME280;39326;42.650;23.248;2023-04-09T03:26:34;92704.47;;;3.62;85.56
53041;BME280;39326;42.650;23.248;2023-04-09T03:29:03;92711.97;;;3.48;86.14
53041;BME280;39326;42.650;23.248;2023-04-09T03:31:29;92710.53;;;3.50;85.64
53041;BME280;39326;42.650;23.248;2023-04-09T03:33:55;92702.97;;;3.49;86.38
53041;BME280;39326;42.650;23.248;2023-04-09T03:36:21;92705.25;;;3.50;85.96
53041;BME280;39326;42.650;23.248;2023-04-09T03:38:48;92710.44;;;3.47;85.44
53041;BME280;39326;42.650;23.248;2023-04-09T03:41:13;92700.44;;;3.40;86.31
53041;BME280;39326;42.650;23.248;2023-04-09T03:43:40;92706.59;;;3.44;86.40
53041;BME280;39326;42.650;23.248;2023-04-09T03:46:13;92709.25;;;3.44;85.57
53041;BME280;39326;42.650;23.248;2023-04-09T03:48:39;92714.41;;;3.41;86.30
53041;BME280;39326;42.650;23.248;2023-04-09T03:51:06;92716.25;;;3.40;86.13
53041;BME280;39326;42.650;23.248;2023-04-09T03:53:31;92718.13;;;3.40;85.72
53041;BME280;39326;42.650;23.248;2023-04-09T03:55:57;92725.97;;;3.36;85.31
53041;BME280;39326;42.650;23.248;2023-04-09T03:58:23;92724.97;;;3.28;85.91
53041;BME280;39326;42.650;23.248;2023-04-09T04:00:50;92720.59;;;3.20;86.21
53041;BME280;39326;42.650;23.248;2023-04-09T04:03:15;92728.84;;;3.19;86.16
53041;BME280;39326;42.650;23.248;2023-04-09T04:05:41;92725.09;;;3.20;86.64
53041;BME280;39326;42.650;23.248;2023-04-09T04:08:07;92727.16;;;3.26;86.20
53041;BME280;39326;42.650;23.248;2023-04-09T04:10:33;92727.06;;;3.23;86.47
53041;BME280;39326;42.650;23.248;2023-04-09T04:12:59;92719.59;;;3.25;87.19
53041;BME280;39326;42.650;23.248;2023-04-09T04:15:27;92720.03;;;3.27;87.12
53041;BME280;39326;42.650;23.248;2023-04-09T04:17:53;92722.31;;;3.28;86.81
53041;BME280;39326;42.650;23.248;2023-04-09T04:20:19;92728.69;;;3.40;86.49
53041;BME280;39326;42.650;23.248;2023-04-09T04:22:45;92724.38;;;3.47;86.39
53041;BME280;39326;42.650;23.248;2023-04-09T04:25:11;92727.00;;;3.47;86.49
53041;BME280;39326;42.650;23.248;2023-04-09T04:27:40;92727.47;;;3.49;87.54
53041;BME280;39326;42.650;23.248;2023-04-09T04:30:07;92714.59;;;3.48;87.20
53041;BME280;39326;42.650;23.248;2023-04-09T04:32:33;92723.50;;;3.55;87.38
53041;BME280;39326;42.650;23.248;2023-04-09T04:34:59;92728.19;;;3.62;87.92
53041;BME280;39326;42.650;23.248;2023-04-09T04:37:25;92722.16;;;3.61;88.13
53041;BME280;39326;42.650;23.248;2023-04-09T04:39:51;92727.63;;;3.69;87.82
53041;BME280;39326;42.650;23.248;2023-04-09T04:42:17;92729.16;;;3.70;88.47
53041;BME280;39326;42.650;23.248;2023-04-09T04:44:43;92728.16;;;3.74;88.55
53041;BME280;39326;42.650;23.248;2023-04-09T04:47:09;92725.03;;;3.84;89.04
53041;BME280;39326;42.650;23.248;2023-04-09T04:49:34;92725.47;;;3.86;88.92
53041;BME280;39326;42.650;23.248;2023-04-09T04:52:00;92731.72;;;3.94;88.73
53041;BME280;39326;42.650;23.248;2023-04-09T04:54:26;92729.06;;;3.94;89.15
53041;BME280;39326;42.650;23.248;2023-04-09T04:56:52;92723.63;;;4.03;88.99
53041;BME280;39326;42.650;23.248;2023-04-09T04:59:18;92727.72;;;4.12;89.47
53041;BME280;39326;42.650;23.248;2023-04-09T05:01:44;92731.06;;;4.25;89.34
53041;BME280;39326;42.650;23.248;2023-04-09T05:04:10;92734.28;;;4.34;88.97
53041;BME280;39326;42.650;23.248;2023-04-09T05:06:36;92724.78;;;4.46;88.73
53041;BME280;39326;42.650;23.248;2023-04-09T05:09:02;92735.75;;;4.48;89.05
53041;BME280;39326;42.650;23.248;2023-04-09T05:11:28;92734.06;;;4.55;88.74
53041;BME280;39326;42.650;23.248;2023-04-09T05:13:54;92729.03;;;4.66;88.27
53041;BME280;39326;42.650;23.248;2023-04-09T05:16:20;92735.25;;;4.74;88.12
53041;BME280;39326;42.650;23.248;2023-04-09T05:18:47;92741.66;;;4.73;88.15
53041;BME280;39326;42.650;23.248;2023-04-09T05:21:12;92728.44;;;4.73;88.22
53041;BME280;39326;42.650;23.248;2023-04-09T05:23:38;92734.00;;;4.67;88.53
53041;BME280;39326;42.650;23.248;2023-04-09T05:26:04;92733.66;;;4.69;88.66
53041;BME280;39326;42.650;23.248;2023-04-09T05:28:29;92721.97;;;4.70;88.64
53041;BME280;39326;42.650;23.248;2023-04-09T05:30:56;92720.94;;;4.59;89.56
53041;BME280;39326;42.650;23.248;2023-04-09T05:33:22;92734.75;;;4.68;89.20
53041;BME280;39326;42.650;23.248;2023-04-09T05:35:48;92727.69;;;4.72;89.34
53041;BME280;39326;42.650;23.248;2023-04-09T05:38:14;92705.94;;;4.79;89.05
53041;BME280;39326;42.650;23.248;2023-04-09T05:40:41;92727.00;;;4.75;90.21
53041;BME280;39326;42.650;23.248;2023-04-09T05:43:08;92730.84;;;4.93;89.43
53041;BME280;39326;42.650;23.248;2023-04-09T05:45:34;92732.97;;;4.88;91.01
53041;BME280;39326;42.650;23.248;2023-04-09T05:48:00;92728.03;;;4.86;90.85
53041;BME280;39326;42.650;23.248;2023-04-09T05:50:27;92724.25;;;5.03;90.43
53041;BME280;39326;42.650;23.248;2023-04-09T05:52:52;92725.47;;;5.06;91.04
53041;BME280;39326;42.650;23.248;2023-04-09T05:55:18;92724.25;;;5.19;91.03
53041;BME280;39326;42.650;23.248;2023-04-09T05:57:45;92723.38;;;5.15;90.66
53041;BME280;39326;42.650;23.248;2023-04-09T06:00:12;92729.13;;;5.36;90.06
53041;BME280;39326;42.650;23.248;2023-04-09T06:02:38;92719.41;;;5.40;90.33
53041;BME280;39326;42.650;23.248;2023-04-09T06:05:05;92722.78;;;5.57;89.72
53041;BME280;39326;42.650;23.248;2023-04-09T06:07:31;92720.69;;;5.66;89.74
53041;BME280;39326;42.650;23.248;2023-04-09T06:09:57;92724.69;;;5.95;88.76
53041;BME280;39326;42.650;23.248;2023-04-09T06:12:23;92726.28;;;5.99;89.18
53041;BME280;39326;42.650;23.248;2023-04-09T06:14:48;92733.25;;;6.08;88.96
53041;BME280;39326;42.650;23.248;2023-04-09T06:17:15;92738.59;;;6.11;88.07
53041;BME280;39326;42.650;23.248;2023-04-09T06:19:40;92726.56;;;6.14;87.75
53041;BME280;39326;42.650;23.248;2023-04-09T06:22:08;92724.38;;;6.39;87.78
53041;BME280;39326;42.650;23.248;2023-04-09T06:24:35;92727.53;;;6.48;87.27
53041;BME280;39326;42.650;23.248;2023-04-09T06:27:01;92734.53;;;6.56;86.39
53041;BME280;39326;42.650;23.248;2023-04-09T06:29:27;92730.59;;;6.69;85.50
53041;BME280;39326;42.650;23.248;2023-04-09T06:31:54;92739.47;;;6.80;85.18
53041;BME280;39326;42.650;23.248;2023-04-09T06:34:20;92740.78;;;6.90;83.22
53041;BME280;39326;42.650;23.248;2023-04-09T06:36:46;92737.06;;;6.95;82.56
53041;BME280;39326;42.650;23.248;2023-04-09T06:39:11;92745.03;;;6.95;82.58
53041;BME280;39326;42.650;23.248;2023-04-09T06:41:37;92745.31;;;7.13;81.42
53041;BME280;39326;42.650;23.248;2023-04-09T06:44:03;92747.31;;;7.19;80.40
53041;BME280;39326;42.650;23.248;2023-04-09T06:46:29;92742.88;;;7.27;81.14
53041;BME280;39326;42.650;23.248;2023-04-09T06:48:55;92753.28;;;7.39;80.13
53041;BME280;39326;42.650;23.248;2023-04-09T06:51:22;92747.03;;;7.54;79.43
53041;BME280;39326;42.650;23.248;2023-04-09T06:53:48;92746.56;;;7.75;79.04
53041;BME280;39326;42.650;23.248;2023-04-09T06:56:14;92748.47;;;8.05;77.85
53041;BME280;39326;42.650;23.248;2023-04-09T06:58:40;92748.16;;;8.10;78.12
53041;BME280;39326;42.650;23.248;2023-04-09T07:01:06;92743.97;;;8.09;77.13
53041;BME280;39326;42.650;23.248;2023-04-09T07:03:32;92747.78;;;8.11;76.04
53041;BME280;39326;42.650;23.248;2023-04-09T07:05:58;92757.78;;;7.91;75.26
53041;BME280;39326;42.650;23.248;2023-04-09T07:08:24;92746.16;;;7.73;75.62
53041;BME280;39326;42.650;23.248;2023-04-09T07:10:50;92743.97;;;7.79;76.30
53041;BME280;39326;42.650;23.248;2023-04-09T07:13:16;92746.94;;;8.04;75.50
53041;BME280;39326;42.650;23.248;2023-04-09T07:15:42;92745.19;;;7.85;74.95
53041;BME280;39326;42.650;23.248;2023-04-09T07:18:07;92735.91;;;8.02;74.10
53041;BME280;39326;42.650;23.248;2023-04-09T07:20:33;92743.06;;;7.98;73.50
53041;BME280;39326;42.650;23.248;2023-04-09T07:22:59;92740.63;;;8.15;73.74
53041;BME280;39326;42.650;23.248;2023-04-09T07:25:25;92747.16;;;8.22;73.15
53041;BME280;39326;42.650;23.248;2023-04-09T07:27:51;92744.31;;;8.41;72.20
53041;BME280;39326;42.650;23.248;2023-04-09T07:30:17;92746.09;;;8.30;71.71
53041;BME280;39326;42.650;23.248;2023-04-09T07:32:43;92748.91;;;8.44;71.05
53041;BME280;39326;42.650;23.248;2023-04-09T07:35:08;92749.22;;;8.72;70.63
53041;BME280;39326;42.650;23.248;2023-04-09T07:37:35;92749.81;;;8.55;69.30
53041;BME280;39326;42.650;23.248;2023-04-09T07:40:01;92752.56;;;8.66;69.19
53041;BME280;39326;42.650;23.248;2023-04-09T07:42:28;92750.53;;;8.93;68.74
53041;BME280;39326;42.650;23.248;2023-04-09T07:44:54;92742.00;;;9.17;67.29
53041;BME280;39326;42.650;23.248;2023-04-09T07:47:21;92757.44;;;9.45;66.48
53041;BME280;39326;42.650;23.248;2023-04-09T07:49:47;92755.16;;;9.51;64.96
53041;BME280;39326;42.650;23.248;2023-04-09T07:52:12;92754.97;;;9.77;64.29
53041;BME280;39326;42.650;23.248;2023-04-09T07:54:38;92768.75;;;9.90;65.14
53041;BME280;39326;42.650;23.248;2023-04-09T07:57:03;92754.56;;;9.72;64.12
53041;BME280;39326;42.650;23.248;2023-04-09T07:59:29;92756.78;;;9.63;64.25
53041;BME280;39326;42.650;23.248;2023-04-09T08:01:55;92756.22;;;9.98;64.10
53041;BME280;39326;42.650;23.248;2023-04-09T08:04:21;92768.03;;;10.00;63.47
53041;BME280;39326;42.650;23.248;2023-04-09T08:06:46;92750.88;;;9.94;63.58
53041;BME280;39326;42.650;23.248;2023-04-09T08:09:15;92765.59;;;10.47;63.65
53041;BME280;39326;42.650;23.248;2023-04-09T08:11:40;92753.81;;;10.58;63.50
53041;BME280;39326;42.650;23.248;2023-04-09T08:14:06;92763.72;;;10.58;62.29
53041;BME280;39326;42.650;23.248;2023-04-09T08:16:37;92772.09;;;10.56;60.73
53041;BME280;39326;42.650;23.248;2023-04-09T08:19:03;92767.19;;;10.69;60.58
53041;BME280;39326;42.650;23.248;2023-04-09T08:21:28;92771.78;;;10.79;60.41
53041;BME280;39326;42.650;23.248;2023-04-09T08:23:54;92766.06;;;10.95;59.89
53041;BME280;39326;42.650;23.248;2023-04-09T08:26:23;92776.03;;;11.12;58.57
53041;BME280;39326;42.650;23.248;2023-04-09T08:28:49;92772.19;;;10.99;59.28
53041;BME280;39326;42.650;23.248;2023-04-09T08:31:16;92768.72;;;10.81;59.82
53041;BME280;39326;42.650;23.248;2023-04-09T08:33:41;92767.91;;;10.62;60.48
53041;BME280;39326;42.650;23.248;2023-04-09T08:36:07;92754.94;;;10.57;59.16
53041;BME280;39326;42.650;23.248;2023-04-09T08:38:33;92767.06;;;10.33;59.69
53041;BME280;39326;42.650;23.248;2023-04-09T08:40:58;92768.94;;;10.26;58.62
53041;BME280;39326;42.650;23.248;2023-04-09T08:43:24;92761.25;;;10.14;60.05
53041;BME280;39326;42.650;23.248;2023-04-09T08:45:52;92752.31;;;9.81;61.36
53041;BME280;39326;42.650;23.248;2023-04-09T08:48:22;92748.31;;;10.12;61.51
53041;BME280;39326;42.650;23.248;2023-04-09T08:50:48;92754.78;;;10.11;61.53
53041;BME280;39326;42.650;23.248;2023-04-09T08:53:15;92757.94;;;10.38;60.18
53041;BME280;39326;42.650;23.248;2023-04-09T08:55:44;92747.72;;;10.58;59.49
53041;BME280;39326;42.650;23.248;2023-04-09T08:58:09;92755.34;;;10.63;59.01
53041;BME280;39326;42.650;23.248;2023-04-09T09:00:36;92759.97;;;10.87;59.99
53041;BME280;39326;42.650;23.248;2023-04-09T09:03:06;92759.59;;;10.89;59.02
53041;BME280;39326;42.650;23.248;2023-04-09T09:05:35;92758.47;;;11.19;59.24
53041;BME280;39326;42.650;23.248;2023-04-09T09:08:02;92751.97;;;10.95;58.70
53041;BME280;39326;42.650;23.248;2023-04-09T09:10:41;92749.66;;;10.65;58.83
53041;BME280;39326;42.650;23.248;2023-04-09T09:13:21;92749.63;;;10.61;59.93
53041;BME280;39326;42.650;23.248;2023-04-09T09:15:48;92753.13;;;11.01;59.57
53041;BME280;39326;42.650;23.248;2023-04-09T09:18:17;92751.22;;;11.05;58.51
53041;BME280;39326;42.650;23.248;2023-04-09T09:20:43;92746.66;;;11.23;58.51
53041;BME280;39326;42.650;23.248;2023-04-09T09:23:09;92742.88;;;11.35;58.02
53041;BME280;39326;42.650;23.248;2023-04-09T09:25:38;92724.94;;;11.18;57.15
53041;BME280;39326;42.650;23.248;2023-04-09T09:28:11;92748.22;;;11.28;57.00
53041;BME280;39326;42.650;23.248;2023-04-09T09:30:38;92744.75;;;10.84;57.00
53041;BME280;39326;42.650;23.248;2023-04-09T09:33:06;92735.97;;;10.98;58.17
53041;BME280;39326;42.650;23.248;2023-04-09T09:35:47;92733.97;;;10.45;57.34
53041;BME280;39326;42.650;23.248;2023-04-09T09:38:13;92730.84;;;10.25;57.90
53041;BME280;39326;42.650;23.248;2023-04-09T09:40:40;92728.53;;;10.13;58.00
53041;BME280;39326;42.650;23.248;2023-04-09T09:43:06;92733.84;;;10.10;58.97
53041;BME280;39326;42.650;23.248;2023-04-09T09:45:32;92737.44;;;9.76;58.58
53041;BME280;39326;42.650;23.248;2023-04-09T09:47:57;92734.13;;;9.94;58.45
53041;BME280;39326;42.650;23.248;2023-04-09T09:50:23;92729.31;;;9.48;59.95
53041;BME280;39326;42.650;23.248;2023-04-09T09:52:49;92731.16;;;9.44;59.84
53041;BME280;39326;42.650;23.248;2023-04-09T09:55:17;92730.56;;;9.65;60.42
53041;BME280;39326;42.650;23.248;2023-04-09T09:57:43;92735.25;;;9.89;58.53
53041;BME280;39326;42.650;23.248;2023-04-09T10:00:11;92728.28;;;9.67;59.05
53041;BME280;39326;42.650;23.248;2023-04-09T10:03:31;92724.19;;;9.87;59.44
53041;BME280;39326;42.650;23.248;2023-04-09T10:05:39;92730.13;;;9.59;59.88
53041;BME280;39326;42.650;23.248;2023-04-09T10:08:05;92731.78;;;9.23;59.88
53041;BME280;39326;42.650;23.248;2023-04-09T10:10:32;92733.69;;;9.22;60.45
53041;BME280;39326;42.650;23.248;2023-04-09T10:12:58;92724.66;;;9.38;60.08
53041;BME280;39326;42.650;23.248;2023-04-09T10:15:25;92733.44;;;9.42;59.74
53041;BME280;39326;42.650;23.248;2023-04-09T10:17:53;92709.16;;;9.50;59.66
53041;BME280;39326;42.650;23.248;2023-04-09T10:20:25;92710.31;;;9.57;59.45
53041;BME280;39326;42.650;23.248;2023-04-09T10:22:53;92710.81;;;9.76;59.48
53041;BME280;39326;42.650;23.248;2023-04-09T10:25:19;92711.59;;;9.80;59.22
53041;BME280;39326;42.650;23.248;2023-04-09T10:27:45;92710.13;;;9.83;58.96
53041;BME280;39326;42.650;23.248;2023-04-09T10:30:32;92703.28;;;9.89;58.65
53041;BME280;39326;42.650;23.248;2023-04-09T10:33:30;92709.69;;;9.77;56.98
53041;BME280;39326;42.650;23.248;2023-04-09T10:36:00;92708.16;;;9.73;56.56
53041;BME280;39326;42.650;23.248;2023-04-09T10:38:39;92708.66;;;10.00;55.64
53041;BME280;39326;42.650;23.248;2023-04-09T10:43:46;92705.63;;;10.01;55.04
53041;BME280;39326;42.650;23.248;2023-04-09T10:46:28;92707.94;;;10.06;53.18
53041;BME280;39326;42.650;23.248;2023-04-09T10:49:07;92701.13;;;10.09;53.86
53041;BME280;39326;42.650;23.248;2023-04-09T10:51:40;92710.72;;;10.35;52.58
53041;BME280;39326;42.650;23.248;2023-04-09T10:59:36;92708.44;;;10.37;51.44
53041;BME280;39326;42.650;23.248;2023-04-09T11:02:06;92708.03;;;10.39;51.24
53041;BME280;39326;42.650;23.248;2023-04-09T11:07:34;92707.97;;;10.10;51.93
53041;BME280;39326;42.650;23.248;2023-04-09T11:10:03;92702.63;;;10.03;52.60
53041;BME280;39326;42.650;23.248;2023-04-09T11:12:28;92708.78;;;10.21;53.16
53041;BME280;39326;42.650;23.248;2023-04-09T11:14:54;92709.16;;;10.23;52.84
53041;BME280;39326;42.650;23.248;2023-04-09T11:17:19;92717.06;;;10.05;52.58
53041;BME280;39326;42.650;23.248;2023-04-09T11:19:45;92712.03;;;9.90;52.08
53041;BME280;39326;42.650;23.248;2023-04-09T11:22:11;92712.53;;;10.13;53.15
53041;BME280;39326;42.650;23.248;2023-04-09T11:24:41;92716.78;;;10.32;54.22
53041;BME280;39326;42.650;23.248;2023-04-09T11:27:06;92707.22;;;10.20;56.16
53041;BME280;39326;42.650;23.248;2023-04-09T11:29:34;92715.28;;;10.45;57.55
53041;BME280;39326;42.650;23.248;2023-04-09T11:31:59;92718.44;;;10.79;56.86
53041;BME280;39326;42.650;23.248;2023-04-09T11:34:28;92716.41;;;10.37;57.70
53041;BME280;39326;42.650;23.248;2023-04-09T11:36:53;92702.72;;;10.42;57.68
53041;BME280;39326;42.650;23.248;2023-04-09T11:39:19;92710.41;;;10.79;57.50
53041;BME280;39326;42.650;23.248;2023-04-09T11:41:45;92718.44;;;10.90;56.21
53041;BME280;39326;42.650;23.248;2023-04-09T11:44:11;92701.97;;;10.49;55.38
53041;BME280;39326;42.650;23.248;2023-04-09T11:46:37;92711.91;;;10.70;56.10
53041;BME280;39326;42.650;23.248;2023-04-09T11:49:03;92722.25;;;10.78;56.04
53041;BME280;39326;42.650;23.248;2023-04-09T11:51:29;92704.19;;;10.18;53.99
53041;BME280;39326;42.650;23.248;2023-04-09T11:54:04;92698.94;;;10.40;56.06
53041;BME280;39326;42.650;23.248;2023-04-09T11:56:30;92703.47;;;10.39;56.98
53041;BME280;39326;42.650;23.248;2023-04-09T11:58:56;92693.16;;;10.23;54.07
53041;BME280;39326;42.650;23.248;2023-04-09T12:01:22;92696.25;;;10.36;53.39
53041;BME280;39326;42.650;23.248;2023-04-09T12:03:54;92696.28;;;10.47;53.22
53041;BME280;39326;42.650;23.248;2023-04-09T12:06:20;92687.53;;;10.64;54.54
53041;BME280;39326;42.650;23.248;2023-04-09T12:08:58;92683.34;;;10.59;55.29
53041;BME280;39326;42.650;23.248;2023-04-09T12:11:28;92680.69;;;10.59;54.83
53041;BME280;39326;42.650;23.248;2023-04-09T12:14:01;92682.97;;;10.68;55.79
53041;BME280;39326;42.650;23.248;2023-04-09T12:16:30;92678.75;;;10.71;55.35
53041;BME280;39326;42.650;23.248;2023-04-09T12:19:06;92679.56;;;10.85;55.63
53041;BME280;39326;42.650;23.248;2023-04-09T12:21:51;92682.97;;;10.79;54.35
53041;BME280;39326;42.650;23.248;2023-04-09T12:24:21;92683.34;;;10.95;54.42
53041;BME280;39326;42.650;23.248;2023-04-09T12:26:47;92685.66;;;10.93;52.54
53041;BME280;39326;42.650;23.248;2023-04-09T12:29:14;92680.69;;;11.06;52.15
53041;BME280;39326;42.650;23.248;2023-04-09T12:31:40;92677.28;;;10.98;51.09
53041;BME280;39326;42.650;23.248;2023-04-09T12:34:05;92672.69;;;10.81;51.69
53041;BME280;39326;42.650;23.248;2023-04-09T12:36:31;92670.78;;;10.96;51.71
53041;BME280;39326;42.650;23.248;2023-04-09T12:38:56;92676.13;;;10.96;50.98
53041;BME280;39326;42.650;23.248;2023-04-09T12:41:22;92673.06;;;11.11;50.89
53041;BME280;39326;42.650;23.248;2023-04-09T12:43:47;92677.25;;;11.23;49.03
53041;BME280;39326;42.650;23.248;2023-04-09T12:46:13;92674.97;;;11.07;48.60
53041;BME280;39326;42.650;23.248;2023-04-09T12:48:39;92656.28;;;11.22;47.91
53041;BME280;39326;42.650;23.248;2023-04-09T12:51:04;92663.91;;;11.30;47.42
53041;BME280;39326;42.650;23.248;2023-04-09T12:53:31;92657.03;;;11.26;47.15
53041;BME280;39326;42.650;23.248;2023-04-09T12:55:56;92662.00;;;11.13;47.77
53041;BME280;39326;42.650;23.248;2023-04-09T12:58:22;92663.94;;;11.16;49.20
53041;BME280;39326;42.650;23.248;2023-04-09T13:00:47;92658.19;;;11.07;48.67
53041;BME280;39326;42.650;23.248;2023-04-09T13:03:13;92665.84;;;11.15;48.62
53041;BME280;39326;42.650;23.248;2023-04-09T13:05:41;92658.22;;;11.21;49.33
53041;BME280;39326;42.650;23.248;2023-04-09T13:08:06;92654.38;;;11.26;48.86
53041;BME280;39326;42.650;23.248;2023-04-09T13:10:32;92658.56;;;11.23;47.55
53041;BME280;39326;42.650;23.248;2023-04-09T13:12:58;92663.53;;;11.10;48.57
53041;BME280;39326;42.650;23.248;2023-04-09T13:15:24;92657.06;;;10.90;47.94
53041;BME280;39326;42.650;23.248;2023-04-09T13:17:49;92653.25;;;11.02;48.56